createdAt,value
2023-05-17T00:00:31.133Z,10.90
2023-05-17T00:02:57.831Z,10.93
2023-05-17T00:05:24.667Z,11.01
2023-05-17T00:07:51.638Z,11.06
2023-05-17T00:10:18.421Z,10.94
2023-05-17T00:12:45.188Z,10.98
2023-05-17T00:15:11.931Z,10.88
2023-05-17T00:17:38.865Z,10.90
2023-05-17T00:20:06.593Z,10.81
2023-05-17T00:22:33.331Z,10.81
2023-05-17T00:25:00.025Z,10.88
2023-05-17T00:27:26.716Z,10.86
2023-05-17T00:29:53.476Z,10.76
2023-05-17T00:32:20.257Z,10.45
2023-05-17T00:34:47.029Z,10.70
2023-05-17T00:37:13.732Z,10.75
2023-05-17T00:39:40.428Z,10.74
2023-05-17T00:42:07.226Z,10.59
2023-05-17T00:44:34.013Z,10.73
2023-05-17T00:47:00.786Z,10.60
2023-05-17T00:49:27.694Z,10.49
2023-05-17T00:51:55.156Z,10.58
2023-05-17T00:54:22.894Z,10.58
2023-05-17T00:56:50.166Z,10.43
2023-05-17T00:59:17.715Z,10.52
2023-05-17T01:01:45.368Z,10.60
2023-05-17T01:04:12.236Z,10.43
2023-05-17T01:06:39.208Z,10.52
2023-05-17T01:09:06.504Z,10.59
2023-05-17T01:11:57.220Z,10.61
2023-05-17T01:14:31.629Z,10.57
2023-05-17T01:17:04.781Z,10.48
2023-05-17T01:19:49.759Z,10.49
2023-05-17T01:23:00.975Z,10.57
2023-05-17T01:25:53.013Z,10.43
2023-05-17T01:28:23.188Z,10.47
2023-05-17T01:30:51.860Z,10.46
2023-05-17T01:33:21.660Z,10.46
2023-05-17T01:35:48.461Z,10.55
2023-05-17T01:38:15.115Z,10.56
2023-05-17T01:40:52.557Z,10.58
2023-05-17T01:43:31.614Z,10.63
2023-05-17T01:46:14.895Z,10.60
2023-05-17T01:48:49.693Z,10.68
2023-05-17T01:51:20.272Z,10.71
2023-05-17T01:53:53.513Z,10.72
2023-05-17T01:56:21.423Z,10.85
2023-05-17T01:58:49.158Z,10.75
2023-05-17T02:01:18.347Z,10.49
2023-05-17T02:03:54.149Z,10.60
2023-05-17T02:06:20.950Z,10.62
2023-05-17T02:08:47.634Z,10.58
2023-05-17T02:11:14.361Z,10.73
2023-05-17T02:13:41.192Z,10.69
2023-05-17T02:16:07.886Z,10.62
2023-05-17T02:18:35.847Z,10.78
2023-05-17T02:21:02.799Z,10.71
2023-05-17T02:23:29.525Z,10.74
2023-05-17T02:25:56.194Z,10.79
2023-05-17T02:28:22.931Z,10.72
2023-05-17T02:30:49.632Z,10.88
2023-05-17T02:33:16.406Z,10.72
2023-05-17T02:35:43.189Z,10.61
2023-05-17T02:38:09.929Z,10.83
2023-05-17T02:40:36.590Z,10.83
2023-05-17T02:43:03.363Z,10.82
2023-05-17T02:45:30.784Z,10.78
2023-05-17T02:47:57.545Z,10.76
2023-05-17T02:50:24.286Z,10.52
2023-05-17T02:52:51.102Z,10.47
2023-05-17T02:55:18.037Z,10.35
2023-05-17T02:57:44.824Z,10.34
2023-05-17T03:00:11.879Z,10.36
2023-05-17T03:02:38.730Z,10.36
2023-05-17T03:05:05.819Z,10.22
2023-05-17T03:07:32.511Z,10.19
2023-05-17T03:09:59.194Z,10.17
2023-05-17T03:12:26.889Z,10.44
2023-05-17T03:14:55.017Z,10.52
2023-05-17T03:17:21.676Z,10.47
2023-05-17T03:19:48.445Z,10.37
2023-05-17T03:22:15.162Z,10.31
2023-05-17T03:24:41.861Z,10.56
2023-05-17T03:27:08.614Z,10.59
2023-05-17T03:29:35.334Z,10.53
2023-05-17T03:32:03.337Z,10.31
2023-05-17T03:34:30.040Z,10.22
2023-05-17T03:36:56.711Z,10.25
2023-05-17T03:39:23.485Z,10.23
2023-05-17T03:41:51.093Z,10.22
2023-05-17T03:44:17.832Z,10.26
2023-05-17T03:46:44.706Z,10.47
2023-05-17T03:49:11.828Z,10.51
2023-05-17T03:51:38.574Z,10.60
2023-05-17T03:54:05.286Z,10.60
2023-05-17T03:56:32.618Z,10.57
2023-05-17T03:58:59.377Z,10.61
2023-05-17T04:01:26.120Z,10.69
2023-05-17T04:03:52.910Z,10.68
2023-05-17T04:06:19.624Z,10.58
2023-05-17T04:08:46.334Z,10.74
2023-05-17T04:11:16.080Z,10.64
2023-05-17T04:13:43.004Z,10.81
2023-05-17T04:16:10.331Z,10.83
2023-05-17T04:18:38.403Z,10.87
2023-05-17T04:21:06.264Z,10.89
2023-05-17T04:23:34.307Z,11.10
2023-05-17T04:26:01.032Z,10.95
2023-05-17T04:28:27.931Z,10.69
2023-05-17T04:30:56.207Z,10.49
2023-05-17T04:33:24.597Z,10.81
2023-05-17T04:35:54.963Z,10.82
2023-05-17T04:38:21.848Z,10.78
2023-05-17T04:40:48.622Z,10.80
2023-05-17T04:43:15.604Z,10.94
2023-05-17T04:45:42.310Z,11.08
2023-05-17T04:48:09.071Z,11.06
2023-05-17T04:50:36.044Z,10.98
2023-05-17T04:53:02.799Z,11.16
2023-05-17T04:55:29.707Z,11.17
2023-05-17T04:57:56.645Z,11.12
2023-05-17T05:00:24.037Z,11.20
2023-05-17T05:02:50.749Z,11.20
2023-05-17T05:05:17.819Z,11.17
2023-05-17T05:07:44.484Z,11.32
2023-05-17T05:10:11.175Z,11.23
2023-05-17T05:12:38.209Z,11.09
2023-05-17T05:15:05.332Z,11.20
2023-05-17T05:17:32.222Z,11.34
2023-05-17T05:19:59.392Z,11.42
2023-05-17T05:22:26.225Z,11.53
2023-05-17T05:24:52.981Z,11.50
2023-05-17T05:27:19.703Z,11.49
2023-05-17T05:29:46.565Z,11.48
2023-05-17T05:32:13.371Z,11.51
2023-05-17T05:34:40.096Z,11.62
2023-05-17T05:37:06.753Z,11.55
2023-05-17T05:39:33.631Z,11.68
2023-05-17T05:42:00.709Z,11.63
2023-05-17T05:44:27.469Z,11.66
2023-05-17T05:46:54.217Z,11.72
2023-05-17T05:49:20.979Z,11.66
2023-05-17T05:51:47.754Z,11.71
2023-05-17T05:54:14.511Z,11.92
2023-05-17T05:56:41.327Z,11.83
2023-05-17T05:59:08.002Z,11.92
2023-05-17T06:01:34.894Z,11.93
2023-05-17T06:04:01.615Z,11.91
2023-05-17T06:06:28.388Z,11.91
2023-05-17T06:08:58.119Z,11.85
2023-05-17T06:11:26.340Z,12.07
2023-05-17T06:13:53.317Z,11.96
2023-05-17T06:16:20.010Z,11.83
2023-05-17T06:18:48.744Z,12.01
2023-05-17T06:21:18.696Z,12.07
2023-05-17T06:23:45.608Z,12.27
2023-05-17T06:26:12.340Z,12.32
2023-05-17T06:28:39.257Z,12.41
2023-05-17T06:31:05.989Z,12.41
2023-05-17T06:33:32.917Z,12.39
2023-05-17T06:38:29.988Z,12.25
2023-05-17T06:40:58.629Z,12.46
2023-05-17T06:43:25.322Z,12.40
2023-05-17T06:45:52.002Z,12.39
2023-05-17T06:48:18.871Z,11.99
2023-05-17T06:50:45.772Z,12.31
2023-05-17T06:53:12.464Z,12.45
2023-05-17T06:55:42.245Z,12.50
2023-05-17T06:58:12.031Z,12.43
2023-05-17T07:00:38.834Z,12.56
2023-05-17T07:03:05.966Z,12.76
2023-05-17T07:05:33.314Z,12.79
2023-05-17T07:08:00.289Z,12.46
2023-05-17T07:10:27.033Z,12.72
2023-05-17T07:12:53.934Z,12.87
2023-05-17T07:15:20.737Z,12.87
2023-05-17T07:17:47.620Z,12.81
2023-05-17T07:20:15.053Z,13.31
2023-05-17T07:22:41.875Z,13.57
2023-05-17T07:25:09.149Z,13.87
2023-05-17T07:27:36.037Z,13.98
2023-05-17T07:30:03.609Z,14.56
2023-05-17T07:32:30.374Z,15.22
2023-05-17T07:34:57.121Z,15.26
2023-05-17T07:37:23.882Z,15.49
2023-05-17T07:39:50.807Z,15.10
2023-05-17T07:42:18.083Z,15.17
2023-05-17T07:44:44.766Z,15.43
2023-05-17T07:47:11.588Z,15.80
2023-05-17T07:49:38.363Z,16.37
2023-05-17T07:52:05.407Z,16.70
2023-05-17T07:54:32.190Z,15.77
2023-05-17T07:56:59.793Z,17.08
2023-05-17T07:59:26.605Z,16.84
2023-05-17T08:01:54.239Z,17.37
2023-05-17T08:04:21.134Z,17.66
2023-05-17T08:06:48.615Z,17.89
2023-05-17T08:09:20.030Z,18.11
2023-05-17T08:11:47.068Z,17.78
2023-05-17T08:14:17.264Z,17.72
2023-05-17T08:16:46.183Z,18.05
2023-05-17T08:19:15.127Z,18.10
2023-05-17T08:21:42.772Z,18.19
2023-05-17T08:24:12.838Z,18.11
2023-05-17T08:26:39.701Z,18.29
2023-05-17T08:29:06.594Z,18.02
2023-05-17T08:31:33.416Z,17.73
2023-05-17T08:34:00.589Z,18.54
2023-05-17T08:36:28.566Z,18.77
2023-05-17T08:38:55.565Z,18.29
2023-05-17T08:41:22.962Z,18.05
2023-05-17T08:43:51.097Z,18.05
2023-05-17T08:46:21.889Z,18.01
2023-05-17T08:48:53.656Z,18.53
2023-05-17T08:51:21.988Z,18.92
2023-05-17T08:53:50.537Z,18.95
2023-05-17T08:56:21.552Z,19.01
2023-05-17T08:58:57.107Z,19.32
2023-05-17T09:01:26.625Z,19.18
2023-05-17T09:03:54.543Z,19.13
2023-05-17T09:06:22.422Z,19.23
2023-05-17T09:08:54.814Z,19.13
2023-05-17T09:11:32.211Z,19.51
2023-05-17T09:14:00.272Z,19.65
2023-05-17T09:16:31.430Z,19.69
2023-05-17T09:18:59.339Z,19.52
2023-05-17T09:21:27.704Z,19.03
2023-05-17T09:24:05.369Z,19.12
2023-05-17T09:26:44.819Z,18.45
2023-05-17T09:29:13.313Z,19.03
2023-05-17T09:31:41.197Z,19.64
2023-05-17T09:34:08.907Z,19.63
2023-05-17T09:36:37.447Z,18.68
2023-05-17T09:39:06.619Z,19.31
2023-05-17T09:41:42.241Z,19.16
2023-05-17T09:44:10.228Z,18.79
2023-05-17T09:46:41.782Z,17.75
2023-05-17T09:49:09.509Z,18.23
2023-05-17T09:51:41.707Z,18.47
2023-05-17T09:54:10.119Z,18.50
2023-05-17T09:56:37.681Z,18.27
2023-05-17T09:59:10.691Z,18.40
2023-05-17T10:01:40.535Z,18.15
2023-05-17T10:04:10.715Z,18.46
2023-05-17T10:09:13.576Z,19.11
2023-05-17T10:11:43.175Z,18.71
2023-05-17T10:14:23.296Z,18.21
2023-05-17T10:16:51.417Z,18.79
2023-05-17T10:19:21.171Z,18.99
2023-05-17T10:21:50.204Z,18.85
2023-05-17T10:24:17.677Z,19.01
2023-05-17T10:26:45.058Z,18.29
2023-05-17T10:29:11.989Z,17.21
2023-05-17T10:31:42.430Z,16.82
2023-05-17T10:34:11.991Z,17.45
2023-05-17T10:36:40.717Z,18.05
2023-05-17T10:39:10.210Z,17.77
2023-05-17T10:41:41.819Z,17.76
2023-05-17T10:44:12.361Z,18.02
2023-05-17T10:46:39.351Z,17.55
2023-05-17T10:49:06.354Z,17.40
2023-05-17T10:51:37.716Z,17.76
2023-05-17T10:54:18.683Z,17.95
2023-05-17T10:56:50.585Z,17.38
2023-05-17T10:59:29.609Z,17.37
2023-05-17T11:02:06.250Z,17.33
2023-05-17T11:04:39.939Z,17.53
2023-05-17T11:07:29.642Z,17.68
2023-05-17T11:10:06.200Z,17.39
2023-05-17T11:12:43.005Z,17.17
2023-05-17T11:15:14.791Z,17.48
2023-05-17T11:17:44.766Z,17.96
2023-05-17T11:20:27.054Z,17.80
2023-05-17T11:23:01.033Z,17.45
2023-05-17T11:25:36.448Z,16.91
2023-05-17T11:28:22.406Z,17.18
2023-05-17T11:30:53.842Z,17.45
2023-05-17T11:33:33.088Z,17.26
2023-05-17T11:36:13.526Z,17.33
2023-05-17T11:38:40.189Z,17.00
2023-05-17T11:43:52.317Z,17.33
2023-05-17T11:46:21.555Z,17.21
2023-05-17T11:48:51.280Z,17.13
2023-05-17T11:51:21.241Z,17.11
2023-05-17T11:53:50.102Z,17.71
2023-05-17T11:56:17.376Z,17.67
2023-05-17T11:58:44.655Z,18.28
2023-05-17T12:01:11.450Z,18.02
2023-05-17T12:03:38.160Z,17.93
2023-05-17T12:06:17.656Z,17.84
2023-05-17T12:08:45.934Z,18.26
2023-05-17T12:11:15.203Z,18.36
2023-05-17T12:13:42.848Z,19.20
2023-05-17T12:16:18.119Z,18.99
2023-05-17T12:18:50.686Z,17.91
2023-05-17T12:21:19.253Z,17.93
2023-05-17T12:23:49.551Z,17.86
2023-05-17T12:26:19.516Z,17.72
2023-05-17T12:28:53.509Z,17.95
2023-05-17T12:31:24.470Z,18.48
2023-05-17T12:33:51.538Z,17.98
2023-05-17T12:36:19.421Z,18.10
2023-05-17T12:38:47.325Z,18.28
2023-05-17T12:41:15.846Z,18.22
2023-05-17T12:43:45.150Z,18.08
2023-05-17T12:46:19.570Z,18.40
2023-05-17T12:48:47.847Z,17.78
2023-05-17T12:51:17.183Z,18.25
2023-05-17T12:53:44.879Z,18.16
2023-05-17T12:56:17.359Z,17.91
2023-05-17T12:58:45.013Z,17.96
2023-05-17T13:01:14.604Z,18.12
2023-05-17T13:03:41.920Z,17.58
2023-05-17T13:06:10.375Z,17.82
2023-05-17T13:08:37.626Z,17.53
2023-05-17T13:11:14.912Z,17.70
2023-05-17T13:13:41.769Z,17.64
2023-05-17T13:16:08.497Z,17.37
2023-05-17T13:18:55.890Z,17.45
2023-05-17T13:21:24.684Z,17.28
2023-05-17T13:23:51.768Z,17.20
2023-05-17T13:26:18.993Z,17.15
2023-05-17T13:28:46.528Z,16.82
2023-05-17T13:31:13.367Z,17.07
2023-05-17T13:33:40.248Z,17.24
2023-05-17T13:36:07.169Z,17.05
2023-05-17T13:38:33.844Z,17.03
2023-05-17T13:41:00.612Z,16.94
2023-05-17T13:43:27.341Z,17.50
2023-05-17T13:45:57.013Z,16.55
2023-05-17T13:48:24.132Z,17.04
2023-05-17T13:50:51.158Z,16.95
2023-05-17T13:53:18.387Z,16.84
2023-05-17T13:55:45.390Z,16.92
2023-05-17T13:58:13.079Z,17.05
2023-05-17T14:00:42.834Z,17.06
2023-05-17T14:03:09.783Z,16.84
2023-05-17T14:05:36.848Z,16.79
2023-05-17T14:08:03.704Z,16.71
2023-05-17T14:10:31.107Z,16.78
2023-05-17T14:12:57.957Z,17.13
2023-05-17T14:15:24.750Z,17.43
2023-05-17T14:17:51.660Z,16.96
2023-05-17T14:20:18.677Z,17.28
2023-05-17T14:22:46.340Z,16.87
2023-05-17T14:25:13.034Z,17.17
2023-05-17T14:27:39.728Z,17.54
2023-05-17T14:30:06.976Z,17.67
2023-05-17T14:32:35.499Z,17.45
2023-05-17T14:35:02.284Z,17.29
2023-05-17T14:37:28.986Z,17.41
2023-05-17T14:40:06.004Z,17.79
2023-05-17T14:42:33.687Z,17.97
2023-05-17T14:45:00.764Z,18.02
2023-05-17T14:47:27.504Z,17.69
2023-05-17T14:49:54.197Z,18.35
2023-05-17T14:52:20.978Z,18.08
2023-05-17T14:54:47.705Z,18.02
2023-05-17T14:57:14.407Z,17.85
2023-05-17T14:59:43.184Z,17.84
2023-05-17T15:02:11.751Z,18.29
2023-05-17T15:04:38.595Z,18.33
2023-05-17T15:07:06.157Z,18.35
2023-05-17T15:09:38.146Z,18.50
2023-05-17T15:12:05.283Z,18.65
2023-05-17T15:14:31.939Z,19.03
2023-05-17T15:16:58.662Z,18.46
2023-05-17T15:19:25.444Z,18.62
2023-05-17T15:21:52.515Z,18.87
2023-05-17T15:24:19.280Z,19.12
2023-05-17T15:26:46.016Z,18.72
2023-05-17T15:29:12.703Z,18.33
2023-05-17T15:31:39.391Z,18.65
2023-05-17T15:34:06.561Z,18.35
2023-05-17T15:36:34.596Z,18.42
2023-05-17T15:39:01.313Z,18.50
2023-05-17T15:41:30.122Z,18.72
2023-05-17T15:43:57.624Z,19.11
2023-05-17T15:46:24.412Z,18.65
2023-05-17T15:48:51.102Z,18.47
2023-05-17T15:51:17.939Z,18.53
2023-05-17T15:53:44.651Z,18.54
2023-05-17T15:56:11.659Z,18.43
2023-05-17T15:58:38.412Z,18.37
2023-05-17T16:01:06.295Z,18.68
2023-05-17T16:03:33.833Z,18.77
2023-05-17T16:06:00.982Z,19.17
2023-05-17T16:08:27.676Z,18.81
2023-05-17T16:10:54.332Z,18.67
2023-05-17T16:13:21.168Z,18.94
2023-05-17T16:15:48.202Z,19.03
2023-05-17T16:18:15.336Z,19.04
2023-05-17T16:20:42.616Z,18.91
2023-05-17T16:23:09.829Z,19.10
2023-05-17T16:25:36.700Z,19.18
2023-05-17T16:28:03.535Z,19.30
2023-05-17T16:30:30.287Z,18.91
2023-05-17T16:32:57.034Z,19.09
2023-05-17T16:35:23.759Z,19.32
2023-05-17T16:37:50.503Z,19.43
2023-05-17T16:40:17.308Z,19.38
2023-05-17T16:42:44.706Z,19.27
2023-05-17T16:45:12.062Z,19.61
2023-05-17T16:47:38.968Z,19.43
2023-05-17T16:50:07.174Z,19.25
2023-05-17T16:52:35.229Z,19.43
2023-05-17T16:55:03.729Z,19.32
2023-05-17T16:57:32.528Z,19.32
2023-05-17T17:00:01.220Z,18.84
2023-05-17T17:02:28.553Z,19.14
2023-05-17T17:04:55.841Z,19.03
2023-05-17T17:07:22.565Z,18.78
2023-05-17T17:09:49.306Z,18.77
2023-05-17T17:12:24.053Z,18.81
2023-05-17T17:14:53.115Z,18.96
2023-05-17T17:17:19.845Z,18.75
2023-05-17T17:19:46.608Z,18.82
2023-05-17T17:22:14.752Z,18.65
2023-05-17T17:24:42.793Z,18.75
2023-05-17T17:27:09.441Z,18.52
2023-05-17T17:29:36.379Z,18.37
2023-05-17T17:32:03.148Z,18.14
2023-05-17T17:34:29.936Z,17.97
2023-05-17T17:36:58.145Z,18.14
2023-05-17T17:39:25.024Z,18.14
2023-05-17T17:41:51.758Z,18.10
2023-05-17T17:44:19.482Z,18.08
2023-05-17T17:46:46.211Z,18.01
2023-05-17T17:49:12.932Z,17.74
2023-05-17T17:51:39.612Z,17.77
2023-05-17T17:54:07.474Z,17.99
2023-05-17T17:56:34.548Z,17.83
2023-05-17T17:59:01.350Z,17.98
2023-05-17T18:01:29.702Z,17.65
2023-05-17T18:03:56.430Z,17.69
2023-05-17T18:06:23.764Z,17.88
2023-05-17T18:08:50.551Z,17.75
2023-05-17T18:11:17.524Z,17.81
2023-05-17T18:13:44.397Z,17.51
2023-05-17T18:16:11.182Z,17.36
2023-05-17T18:18:40.758Z,17.30
2023-05-17T18:21:08.805Z,17.48
2023-05-17T18:23:36.022Z,17.40
2023-05-17T18:26:03.487Z,17.52
2023-05-17T18:28:41.132Z,17.39
2023-05-17T18:31:08.855Z,17.15
2023-05-17T18:33:35.746Z,17.27
2023-05-17T18:36:02.772Z,17.20
2023-05-17T18:38:29.765Z,17.27
2023-05-17T18:40:56.608Z,17.18
2023-05-17T18:43:23.483Z,16.86
2023-05-17T18:45:51.431Z,16.97
2023-05-17T18:48:18.967Z,16.94
2023-05-17T18:50:45.845Z,16.99
2023-05-17T18:53:13.153Z,16.87
2023-05-17T18:55:40.927Z,16.93
2023-05-17T18:58:08.673Z,16.68
2023-05-17T19:00:36.126Z,16.33
2023-05-17T19:03:04.850Z,16.39
2023-05-17T19:05:32.347Z,16.24
2023-05-17T19:07:59.519Z,16.45
2023-05-17T19:10:26.569Z,16.49
2023-05-17T19:12:53.837Z,16.62
2023-05-17T19:15:21.055Z,16.46
2023-05-17T19:17:47.890Z,16.42
2023-05-17T19:20:14.676Z,16.36
2023-05-17T19:22:41.408Z,16.29
2023-05-17T19:25:09.292Z,16.45
2023-05-17T19:27:36.712Z,16.33
2023-05-17T19:30:03.887Z,16.14
2023-05-17T19:32:33.358Z,16.24
2023-05-17T19:35:01.664Z,15.98
2023-05-17T19:37:29.498Z,16.19
2023-05-17T19:39:56.477Z,16.06
2023-05-17T19:42:23.172Z,15.94
2023-05-17T19:44:49.859Z,16.01
2023-05-17T19:47:17.164Z,16.08
2023-05-17T19:49:43.877Z,15.77
2023-05-17T19:52:10.554Z,15.54
2023-05-17T19:54:37.282Z,15.78
2023-05-17T19:57:04.208Z,15.78
2023-05-17T19:59:30.981Z,15.71
2023-05-17T20:01:58.729Z,15.49
2023-05-17T20:04:25.800Z,15.62
2023-05-17T20:06:52.507Z,15.12
2023-05-17T20:09:19.265Z,15.40
2023-05-17T20:11:46.029Z,15.34
2023-05-17T20:14:13.376Z,15.00
2023-05-17T20:16:40.961Z,15.11
2023-05-17T20:19:08.455Z,14.97
2023-05-17T20:21:36.668Z,14.98
2023-05-17T20:24:07.124Z,15.24
2023-05-17T20:26:38.024Z,15.10
2023-05-17T20:29:07.796Z,14.96
2023-05-17T20:31:36.720Z,15.08
2023-05-17T20:34:05.064Z,15.12
2023-05-17T20:36:32.169Z,14.84
2023-05-17T20:38:59.526Z,14.80
2023-05-17T20:41:26.793Z,14.44
2023-05-17T20:43:54.015Z,14.61
2023-05-17T20:46:21.036Z,14.54
2023-05-17T20:48:48.728Z,14.47
2023-05-17T20:51:17.997Z,14.23
2023-05-17T20:53:46.817Z,14.29
2023-05-17T20:56:19.674Z,14.21
2023-05-17T20:58:47.964Z,14.14
2023-05-17T21:01:14.939Z,14.05
2023-05-17T21:03:43.378Z,14.10
2023-05-17T21:06:10.898Z,14.04
2023-05-17T21:08:38.542Z,14.17
2023-05-17T21:11:05.929Z,14.17
2023-05-17T21:13:32.814Z,13.85
2023-05-17T21:15:59.746Z,14.00
2023-05-17T21:18:26.606Z,13.94
2023-05-17T21:20:53.457Z,13.96
2023-05-17T21:23:20.333Z,13.96
2023-05-17T21:25:47.627Z,13.96
2023-05-17T21:28:14.381Z,14.01
2023-05-17T21:30:41.143Z,14.04
2023-05-17T21:33:07.967Z,13.90
2023-05-17T21:35:34.725Z,13.94
2023-05-17T21:38:01.455Z,13.80
2023-05-17T21:40:28.440Z,14.05
2023-05-17T21:42:55.520Z,14.15
2023-05-17T21:45:22.725Z,14.02
2023-05-17T21:47:49.408Z,13.92
2023-05-17T21:50:16.888Z,13.93
2023-05-17T21:52:43.853Z,13.80
2023-05-17T21:55:10.788Z,13.80
2023-05-17T21:57:37.845Z,13.60
2023-05-17T22:00:05.972Z,13.63
2023-05-17T22:02:35.177Z,13.72
2023-05-17T22:05:02.459Z,13.75
2023-05-17T22:07:29.220Z,13.72
2023-05-17T22:09:55.933Z,13.64
2023-05-17T22:12:25.671Z,13.46
2023-05-17T22:14:56.451Z,13.58
2023-05-17T22:17:35.192Z,13.54
2023-05-17T22:20:11.480Z,13.65
2023-05-17T22:22:38.334Z,13.93
2023-05-17T22:25:05.859Z,13.82
2023-05-17T22:27:32.750Z,13.86
2023-05-17T22:29:59.406Z,13.73
2023-05-17T22:32:26.361Z,13.85
2023-05-17T22:34:53.155Z,13.59
2023-05-17T22:37:22.798Z,13.74
2023-05-17T22:39:49.882Z,13.59
2023-05-17T22:42:16.615Z,13.62
2023-05-17T22:44:43.334Z,13.63
2023-05-17T22:47:14.837Z,13.58
2023-05-17T22:49:42.288Z,13.58
2023-05-17T22:52:18.603Z,13.56
2023-05-17T22:54:45.410Z,13.63
2023-05-17T22:57:12.112Z,13.54
2023-05-17T22:59:39.408Z,13.44
2023-05-17T23:02:06.091Z,13.40
2023-05-17T23:04:33.063Z,13.44
2023-05-17T23:07:02.629Z,13.52
2023-05-17T23:09:40.636Z,13.58
2023-05-17T23:12:08.997Z,13.60
2023-05-17T23:14:37.037Z,13.59
2023-05-17T23:17:04.760Z,13.55
2023-05-17T23:19:32.992Z,13.53
2023-05-17T23:22:03.263Z,13.62
2023-05-17T23:24:30.295Z,13.56
2023-05-17T23:26:57.760Z,13.58
2023-05-17T23:29:25.961Z,13.55
2023-05-17T23:31:53.612Z,13.68
2023-05-17T23:34:21.061Z,13.58
2023-05-17T23:36:47.915Z,13.51
2023-05-17T23:39:14.574Z,13.46
2023-05-17T23:41:42.310Z,13.31
2023-05-17T23:44:09.137Z,13.29
2023-05-17T23:46:36.526Z,13.28
2023-05-17T23:49:04.616Z,13.20
2023-05-17T23:51:34.740Z,13.41
2023-05-17T23:54:01.778Z,13.36
2023-05-17T23:56:28.568Z,13.40
2023-05-17T23:58:55.522Z,13.45
